createdAt,value
2022-11-29T00:01:18.651Z,18.80
2022-11-29T00:03:45.337Z,19.07
2022-11-29T00:06:14.912Z,19.13
2022-11-29T00:08:42.525Z,18.80
2022-11-29T00:11:35.032Z,19.97
2022-11-29T00:14:02.432Z,18.80
2022-11-29T00:16:29.071Z,19.43
2022-11-29T00:18:55.670Z,19.33
2022-11-29T00:21:22.270Z,19.23
2022-11-29T00:23:48.871Z,19.93
2022-11-29T00:26:15.476Z,19.37
2022-11-29T00:28:42.191Z,20.80
2022-11-29T00:31:20.198Z,20.33
2022-11-29T00:33:47.265Z,20.30
2022-11-29T00:36:14.223Z,19.67
2022-11-29T00:38:41.340Z,19.73
2022-11-29T00:41:08.591Z,20.17
2022-11-29T00:43:35.261Z,20.93
2022-11-29T00:46:02.817Z,20.17
2022-11-29T00:48:29.504Z,22.17
2022-11-29T00:50:56.163Z,20.23
2022-11-29T00:53:22.777Z,20.40
2022-11-29T00:55:51.243Z,20.53
2022-11-29T00:58:19.101Z,22.03
2022-11-29T01:00:46.284Z,21.93
2022-11-29T01:03:12.961Z,21.60
2022-11-29T01:05:40.212Z,20.83
2022-11-29T01:08:06.954Z,22.40
2022-11-29T01:10:33.547Z,22.00
2022-11-29T01:13:00.134Z,21.67
2022-11-29T01:15:26.769Z,21.53
2022-11-29T01:17:53.525Z,22.37
2022-11-29T01:20:20.322Z,22.43
2022-11-29T01:22:47.077Z,21.30
2022-11-29T01:25:14.061Z,21.53
2022-11-29T01:27:41.113Z,21.90
2022-11-29T01:30:09.807Z,21.97
2022-11-29T01:32:36.965Z,22.43
2022-11-29T01:35:04.601Z,22.13
2022-11-29T01:37:31.310Z,23.77
2022-11-29T01:39:58.071Z,22.57
2022-11-29T01:42:24.766Z,23.07
2022-11-29T01:45:02.964Z,23.27
2022-11-29T01:47:30.474Z,23.53
2022-11-29T01:49:57.174Z,23.37
2022-11-29T01:52:29.892Z,22.70
2022-11-29T01:55:00.126Z,22.73
2022-11-29T01:57:27.317Z,23.13
2022-11-29T02:00:04.307Z,23.20
2022-11-29T02:02:57.283Z,24.23
2022-11-29T02:05:25.413Z,23.23
2022-11-29T02:07:54.485Z,23.67
2022-11-29T02:10:28.720Z,24.63
2022-11-29T02:13:10.939Z,23.13
2022-11-29T02:15:54.009Z,24.37
2022-11-29T02:18:56.051Z,23.87
2022-11-29T02:21:40.513Z,23.53
2022-11-29T02:24:27.306Z,23.97
2022-11-29T02:27:10.890Z,23.80
2022-11-29T02:30:19.377Z,23.97
2022-11-29T02:33:09.495Z,22.97
2022-11-29T02:36:11.187Z,24.20
2022-11-29T02:39:02.537Z,23.87
2022-11-29T02:42:06.431Z,24.00
2022-11-29T02:44:46.876Z,24.40
2022-11-29T02:47:29.046Z,24.33
2022-11-29T02:50:18.740Z,23.33
2022-11-29T02:53:00.638Z,24.77
2022-11-29T02:55:53.455Z,24.77
2022-11-29T02:58:47.295Z,24.90
2022-11-29T03:01:23.543Z,24.07
2022-11-29T03:04:13.949Z,24.97
2022-11-29T03:06:55.295Z,26.33
2022-11-29T03:09:37.028Z,25.73
2022-11-29T03:12:44.493Z,25.03
2022-11-29T03:15:21.286Z,26.30
2022-11-29T03:18:02.356Z,26.07
2022-11-29T03:20:45.042Z,26.67
2022-11-29T03:23:24.014Z,26.53
2022-11-29T03:26:04.401Z,26.17
2022-11-29T03:28:37.370Z,27.03
2022-11-29T03:31:18.334Z,25.93
2022-11-29T03:34:32.571Z,25.10
2022-11-29T03:37:14.494Z,26.33
2022-11-29T03:39:44.077Z,26.03
2022-11-29T03:42:23.230Z,26.67
2022-11-29T03:44:59.239Z,26.30
2022-11-29T03:47:35.929Z,29.87
2022-11-29T03:50:10.817Z,26.43
2022-11-29T03:52:53.212Z,26.97
2022-11-29T03:55:32.594Z,27.00
2022-11-29T03:58:30.198Z,26.50
2022-11-29T04:01:24.108Z,27.47
2022-11-29T04:04:36.873Z,27.67
2022-11-29T04:07:34.431Z,27.33
2022-11-29T04:10:11.596Z,26.10
2022-11-29T04:13:12.466Z,27.13
2022-11-29T04:16:11.342Z,27.00
2022-11-29T04:19:02.686Z,26.87
2022-11-29T04:22:06.953Z,26.40
2022-11-29T04:25:15.031Z,26.53
2022-11-29T04:28:15.524Z,27.40
2022-11-29T04:30:59.921Z,28.93
2022-11-29T04:33:53.118Z,28.10
2022-11-29T04:36:46.998Z,28.73
2022-11-29T04:39:57.706Z,29.80
2022-11-29T04:43:07.353Z,27.77
2022-11-29T04:45:48.903Z,28.27
2022-11-29T04:48:44.859Z,28.57
2022-11-29T04:51:31.180Z,27.70
2022-11-29T04:54:20.908Z,28.23
2022-11-29T04:56:51.468Z,27.53
2022-11-29T04:59:26.345Z,31.67
2022-11-29T05:02:05.033Z,28.80
2022-11-29T05:04:48.319Z,29.03
2022-11-29T05:07:28.057Z,29.37
2022-11-29T05:10:06.916Z,29.40
2022-11-29T05:12:42.989Z,28.83
2022-11-29T05:15:48.926Z,28.80
2022-11-29T05:18:42.121Z,29.23
2022-11-29T05:21:33.039Z,28.30
2022-11-29T05:24:14.686Z,29.07
2022-11-29T05:26:55.066Z,28.97
2022-11-29T05:29:30.128Z,28.63
2022-11-29T05:32:07.359Z,28.43
2022-11-29T05:35:04.930Z,28.80
2022-11-29T05:37:53.549Z,31.47
2022-11-29T05:40:43.196Z,29.53
2022-11-29T05:43:27.949Z,29.53
2022-11-29T05:46:18.977Z,28.83
2022-11-29T05:49:09.710Z,28.50
2022-11-29T05:51:46.740Z,29.73
2022-11-29T05:54:32.263Z,29.20
2022-11-29T05:57:47.490Z,29.23
2022-11-29T06:00:16.721Z,28.27
2022-11-29T06:03:27.883Z,28.97
2022-11-29T06:06:03.381Z,29.97
2022-11-29T06:08:40.073Z,29.03
2022-11-29T06:11:39.898Z,29.10
2022-11-29T06:14:36.964Z,29.13
2022-11-29T06:17:38.600Z,29.27
2022-11-29T06:20:10.877Z,30.03
2022-11-29T06:23:20.293Z,28.30
2022-11-29T06:26:03.628Z,29.90
2022-11-29T06:28:44.183Z,28.53
2022-11-29T06:31:28.440Z,28.27
2022-11-29T06:34:30.691Z,28.93
2022-11-29T06:37:06.810Z,30.07
2022-11-29T06:39:33.792Z,28.83
2022-11-29T06:42:00.410Z,30.17
2022-11-29T06:44:27.326Z,29.17
2022-11-29T06:47:19.503Z,28.57
2022-11-29T06:50:03.058Z,30.30
2022-11-29T06:52:55.092Z,30.10
2022-11-29T06:55:33.172Z,30.50
2022-11-29T06:58:10.140Z,30.77
2022-11-29T07:01:18.051Z,28.87
2022-11-29T07:04:11.116Z,28.10
2022-11-29T07:06:38.898Z,29.87
2022-11-29T07:09:18.375Z,30.23
2022-11-29T07:11:46.806Z,30.20
2022-11-29T07:14:14.270Z,31.13
2022-11-29T07:17:15.877Z,29.27
2022-11-29T07:20:00.569Z,29.50
2022-11-29T07:22:41.363Z,29.27
2022-11-29T07:25:32.628Z,28.43
2022-11-29T07:28:18.185Z,30.07
2022-11-29T07:31:09.277Z,28.90
2022-11-29T07:33:58.897Z,29.27
2022-11-29T07:36:31.198Z,29.60
2022-11-29T07:39:19.096Z,28.97
2022-11-29T07:42:02.844Z,30.30
2022-11-29T07:44:43.884Z,29.87
2022-11-29T07:47:10.766Z,30.43
2022-11-29T07:49:37.347Z,30.07
2022-11-29T07:52:04.113Z,32.00
2022-11-29T07:54:31.316Z,30.17
2022-11-29T07:56:57.934Z,32.37
2022-11-29T07:59:24.515Z,30.37
2022-11-29T08:01:51.196Z,28.63
2022-11-29T08:04:17.907Z,30.00
2022-11-29T08:06:44.525Z,31.43
2022-11-29T08:09:11.131Z,29.87
2022-11-29T08:11:39.218Z,28.17
2022-11-29T08:14:05.870Z,29.70
2022-11-29T08:16:32.689Z,30.23
2022-11-29T08:18:59.361Z,29.20
2022-11-29T08:21:26.327Z,30.10
2022-11-29T08:23:52.973Z,29.23
2022-11-29T08:26:22.788Z,28.67
2022-11-29T08:28:52.785Z,29.63
2022-11-29T08:31:20.286Z,30.83
2022-11-29T08:33:47.063Z,29.90
2022-11-29T08:36:18.948Z,29.30
2022-11-29T08:38:46.498Z,30.50
2022-11-29T08:41:15.874Z,30.20
2022-11-29T08:43:42.853Z,30.33
2022-11-29T08:46:13.796Z,29.17
2022-11-29T08:48:44.722Z,29.47
2022-11-29T08:51:11.318Z,30.13
2022-11-29T08:53:45.920Z,29.73
2022-11-29T08:57:04.379Z,28.67
2022-11-29T08:59:01.302Z,29.40
2022-11-29T09:01:29.171Z,29.97
2022-11-29T09:04:07.085Z,30.53
2022-11-29T09:06:42.826Z,29.47
2022-11-29T09:09:09.424Z,28.23
2022-11-29T09:11:36.717Z,29.47
2022-11-29T09:14:07.952Z,28.20
2022-11-29T09:16:37.649Z,29.53
2022-11-29T09:19:05.636Z,30.17
2022-11-29T09:21:34.283Z,29.97
2022-11-29T09:24:02.101Z,29.93
2022-11-29T09:26:31.633Z,29.13
2022-11-29T09:29:01.030Z,31.27
2022-11-29T09:31:28.800Z,29.03
2022-11-29T09:33:56.089Z,29.57
2022-11-29T09:36:28.168Z,29.37
2022-11-29T09:38:55.339Z,28.23
2022-11-29T09:42:00.710Z,29.80
2022-11-29T09:45:06.453Z,30.43
2022-11-29T09:47:44.899Z,29.47
2022-11-29T09:50:32.423Z,29.10
2022-11-29T09:53:01.802Z,28.93
2022-11-29T09:55:58.043Z,27.53
2022-11-29T09:58:33.302Z,29.00
2022-11-29T10:01:05.254Z,30.70
2022-11-29T10:03:36.245Z,28.87
2022-11-29T10:06:19.743Z,30.77
2022-11-29T10:08:55.708Z,28.73
2022-11-29T10:11:29.437Z,31.03
2022-11-29T10:14:11.443Z,29.93
2022-11-29T10:16:44.118Z,31.03
2022-11-29T10:19:28.017Z,28.80
2022-11-29T10:22:03.786Z,31.83
2022-11-29T10:24:32.668Z,29.80
2022-11-29T10:26:59.568Z,30.43
2022-11-29T10:29:26.572Z,30.67
2022-11-29T10:31:56.539Z,30.97
2022-11-29T10:34:25.435Z,30.47
2022-11-29T10:37:02.552Z,30.37
2022-11-29T10:39:49.224Z,29.93
2022-11-29T10:42:40.374Z,30.90
2022-11-29T10:45:37.544Z,31.53
2022-11-29T10:48:04.182Z,30.27
2022-11-29T10:50:33.455Z,30.63
2022-11-29T10:53:05.869Z,30.47
2022-11-29T10:55:58.746Z,29.60
2022-11-29T10:58:28.965Z,29.00
2022-11-29T11:01:08.438Z,30.70
2022-11-29T11:03:42.177Z,30.60
2022-11-29T11:06:15.691Z,29.70
2022-11-29T11:08:57.350Z,29.40
2022-11-29T11:11:34.855Z,29.93
2022-11-29T11:14:18.141Z,29.60
2022-11-29T11:16:44.751Z,31.20
2022-11-29T11:19:32.272Z,30.67
2022-11-29T11:22:01.339Z,30.33
2022-11-29T11:24:31.116Z,29.67
2022-11-29T11:26:58.309Z,31.07
2022-11-29T11:29:35.166Z,31.90
2022-11-29T11:32:01.944Z,31.03
2022-11-29T11:34:34.194Z,30.80
2022-11-29T11:37:19.602Z,29.77
2022-11-29T11:39:48.679Z,30.83
2022-11-29T11:42:37.858Z,29.93
2022-11-29T11:45:10.238Z,30.23
2022-11-29T11:47:58.088Z,30.67
2022-11-29T11:50:49.455Z,30.43
2022-11-29T11:53:27.569Z,29.93
2022-11-29T11:56:14.620Z,29.90
2022-11-29T11:58:44.171Z,30.53
2022-11-29T12:01:30.716Z,31.77
2022-11-29T12:04:21.792Z,31.77
2022-11-29T12:06:57.170Z,30.73
2022-11-29T12:09:41.807Z,31.63
2022-11-29T12:12:21.065Z,30.93
2022-11-29T12:15:16.249Z,31.50
2022-11-29T12:18:24.567Z,30.53
2022-11-29T12:21:07.103Z,31.10
2022-11-29T12:24:02.097Z,31.07
2022-11-29T12:29:28.501Z,30.70
2022-11-29T12:32:21.779Z,31.57
2022-11-29T12:35:19.111Z,30.20
2022-11-29T12:37:51.231Z,30.70
2022-11-29T12:40:33.559Z,29.83
2022-11-29T12:43:10.688Z,31.40
2022-11-29T12:46:02.933Z,31.73
2022-11-29T12:48:49.986Z,31.60
2022-11-29T12:51:35.260Z,33.23
2022-11-29T12:54:34.573Z,33.17
2022-11-29T12:57:05.976Z,32.33
2022-11-29T13:00:10.549Z,33.67
2022-11-29T13:03:09.171Z,33.57
2022-11-29T13:05:53.292Z,33.83
2022-11-29T13:09:07.828Z,34.10
2022-11-29T13:11:48.206Z,34.90
2022-11-29T13:14:42.553Z,34.47
2022-11-29T13:17:27.585Z,36.53
2022-11-29T13:19:57.933Z,34.00
2022-11-29T13:22:38.094Z,33.50
2022-11-29T13:25:15.643Z,35.17
2022-11-29T13:27:58.184Z,35.40
2022-11-29T13:30:26.090Z,38.20
2022-11-29T13:33:07.231Z,35.13
2022-11-29T13:35:41.644Z,36.50
2022-11-29T13:38:44.989Z,37.80
2022-11-29T13:41:39.267Z,34.77
2022-11-29T13:44:18.819Z,33.73
2022-11-29T13:47:08.622Z,35.47
2022-11-29T13:49:55.849Z,35.03
2022-11-29T13:52:44.251Z,36.33
2022-11-29T13:55:11.376Z,36.83
2022-11-29T14:00:43.814Z,35.73
2022-11-29T14:03:28.308Z,36.13
2022-11-29T14:06:13.953Z,35.50
2022-11-29T14:09:17.948Z,37.17
2022-11-29T14:11:42.145Z,32.27
2022-11-29T14:14:21.274Z,36.77
2022-11-29T14:16:52.149Z,33.97
2022-11-29T14:19:22.478Z,35.27
2022-11-29T14:22:07.185Z,35.07
2022-11-29T14:24:37.109Z,34.90
2022-11-29T14:27:06.770Z,35.20
2022-11-29T14:29:53.634Z,36.53
2022-11-29T14:32:28.663Z,35.63
2022-11-29T14:35:04.735Z,35.53
2022-11-29T14:37:53.259Z,36.80
2022-11-29T14:40:25.563Z,36.70
2022-11-29T14:42:52.751Z,36.37
2022-11-29T14:45:28.143Z,36.23
2022-11-29T14:47:55.641Z,36.10
2022-11-29T14:50:30.630Z,36.07
2022-11-29T14:52:57.547Z,36.20
2022-11-29T14:55:27.170Z,37.03
2022-11-29T14:57:54.914Z,36.90
2022-11-29T15:00:27.190Z,36.47
2022-11-29T15:03:10.975Z,38.70
2022-11-29T15:05:42.667Z,38.83
2022-11-29T15:08:14.854Z,37.53
2022-11-29T15:10:47.626Z,37.33
2022-11-29T15:13:18.760Z,37.27
2022-11-29T15:16:25.982Z,38.10
2022-11-29T15:19:03.227Z,36.50
2022-11-29T15:22:06.337Z,37.80
2022-11-29T15:24:57.298Z,36.40
2022-11-29T15:27:24.426Z,35.97
2022-11-29T15:29:52.675Z,37.70
2022-11-29T15:32:26.044Z,36.60
2022-11-29T15:34:55.543Z,38.60
2022-11-29T15:37:23.619Z,36.73
2022-11-29T15:40:06.868Z,36.10
2022-11-29T15:43:13.253Z,35.07
2022-11-29T15:45:40.168Z,37.17
2022-11-29T15:48:16.417Z,37.20
2022-11-29T15:50:52.539Z,36.57
2022-11-29T15:53:25.485Z,36.27
2022-11-29T15:55:56.166Z,36.47
2022-11-29T15:58:25.077Z,35.90
2022-11-29T16:00:52.806Z,36.20
2022-11-29T16:03:25.407Z,36.13
2022-11-29T16:06:28.599Z,36.93
2022-11-29T16:08:55.527Z,36.27
2022-11-29T16:11:27.768Z,36.30
2022-11-29T16:14:23.942Z,36.53
2022-11-29T16:16:54.090Z,40.57
2022-11-29T16:19:37.708Z,36.37
2022-11-29T16:22:10.509Z,37.57
2022-11-29T16:24:48.338Z,37.73
2022-11-29T16:27:15.180Z,36.80
2022-11-29T16:29:47.483Z,36.23
2022-11-29T16:32:28.405Z,38.70
2022-11-29T16:34:57.156Z,37.40
2022-11-29T16:37:26.061Z,37.07
2022-11-29T16:39:57.269Z,37.00
2022-11-29T16:42:33.411Z,39.33
2022-11-29T16:45:05.822Z,36.37
2022-11-29T16:48:00.176Z,36.90
2022-11-29T16:50:32.396Z,35.67
2022-11-29T16:53:35.341Z,37.63
2022-11-29T16:56:02.730Z,36.93
2022-11-29T16:58:29.423Z,36.50
2022-11-29T17:00:56.165Z,37.97
2022-11-29T17:03:22.887Z,36.90
2022-11-29T17:05:49.914Z,36.57
2022-11-29T17:08:16.574Z,35.70
2022-11-29T17:10:43.212Z,37.07
2022-11-29T17:13:11.043Z,38.47
2022-11-29T17:15:37.692Z,38.83
2022-11-29T17:18:04.380Z,37.10
2022-11-29T17:20:30.968Z,37.10
2022-11-29T17:22:57.596Z,37.87
2022-11-29T17:25:24.155Z,38.97
2022-11-29T17:27:50.790Z,36.97
2022-11-29T17:30:17.814Z,37.67
2022-11-29T17:32:44.449Z,36.80
2022-11-29T17:35:11.054Z,37.47
2022-11-29T17:37:37.603Z,38.57
2022-11-29T17:40:04.824Z,38.33
2022-11-29T17:42:31.448Z,38.03
2022-11-29T17:44:58.013Z,38.30
2022-11-29T17:47:24.795Z,37.07
2022-11-29T17:49:51.445Z,38.97
2022-11-29T17:52:18.058Z,37.37
2022-11-29T17:54:44.702Z,37.87
2022-11-29T17:57:11.326Z,38.77
2022-11-29T17:59:37.999Z,36.67
2022-11-29T18:02:04.789Z,42.23
2022-11-29T18:04:31.455Z,38.33
2022-11-29T18:06:58.687Z,38.13
2022-11-29T18:09:25.330Z,38.53
2022-11-29T18:11:52.374Z,38.17
2022-11-29T18:14:28.296Z,39.47
2022-11-29T18:16:55.348Z,39.93
2022-11-29T18:19:23.329Z,37.70
2022-11-29T18:21:50.395Z,37.83
2022-11-29T18:24:17.243Z,39.00
2022-11-29T18:26:43.937Z,38.93
2022-11-29T18:29:10.606Z,38.30
2022-11-29T18:31:40.195Z,39.07
2022-11-29T18:34:11.730Z,40.57
2022-11-29T18:36:42.990Z,39.70
2022-11-29T18:39:14.222Z,39.43
2022-11-29T18:41:45.217Z,38.37
2022-11-29T18:44:13.760Z,39.27
2022-11-29T18:46:42.975Z,39.47
2022-11-29T18:49:12.984Z,41.27
2022-11-29T18:51:42.730Z,38.87
2022-11-29T18:54:09.355Z,39.90
2022-11-29T18:56:37.233Z,39.77
2022-11-29T18:59:13.504Z,41.03
2022-11-29T19:01:42.320Z,39.63
2022-11-29T19:04:18.708Z,39.17
2022-11-29T19:06:45.705Z,40.77
2022-11-29T19:09:15.041Z,40.07
2022-11-29T19:11:41.983Z,41.17
2022-11-29T19:14:11.537Z,42.07
2022-11-29T19:16:40.538Z,37.97
2022-11-29T19:19:07.332Z,39.67
2022-11-29T19:21:34.530Z,40.37
2022-11-29T19:24:03.986Z,40.03
2022-11-29T19:26:32.209Z,39.50
2022-11-29T19:29:00.873Z,40.17
2022-11-29T19:31:28.115Z,41.00
2022-11-29T19:33:55.208Z,41.40
2022-11-29T19:36:25.053Z,39.43
2022-11-29T19:38:54.174Z,39.83
2022-11-29T19:41:26.895Z,40.73
2022-11-29T19:43:55.962Z,42.00
2022-11-29T19:46:28.268Z,40.57
2022-11-29T19:48:56.474Z,39.83
2022-11-29T19:51:24.151Z,40.67
2022-11-29T19:53:56.043Z,41.77
2022-11-29T19:56:23.395Z,42.57
2022-11-29T19:58:50.579Z,41.73
2022-11-29T20:01:24.190Z,41.77
2022-11-29T20:03:51.939Z,42.37
2022-11-29T20:06:19.231Z,41.00
2022-11-29T20:08:46.494Z,42.20
2022-11-29T20:11:16.222Z,43.37
2022-11-29T20:13:44.868Z,42.43
2022-11-29T20:16:14.531Z,40.60
2022-11-29T20:18:50.168Z,42.57
2022-11-29T20:21:36.687Z,42.57
2022-11-29T20:24:11.416Z,41.20
2022-11-29T20:26:39.792Z,43.03
2022-11-29T20:29:08.249Z,42.63
2022-11-29T20:31:36.692Z,42.70
2022-11-29T20:34:05.858Z,42.57
2022-11-29T20:36:54.680Z,43.57
2022-11-29T20:39:43.244Z,43.77
2022-11-29T20:42:28.459Z,43.83
2022-11-29T20:44:57.529Z,45.00
2022-11-29T20:47:27.001Z,45.47
2022-11-29T20:49:54.069Z,43.37
2022-11-29T20:52:42.022Z,42.70
2022-11-29T20:55:08.897Z,44.20
2022-11-29T20:57:38.191Z,44.30
2022-11-29T21:00:10.527Z,43.90
2022-11-29T21:02:38.088Z,42.90
2022-11-29T21:05:05.582Z,42.00
2022-11-29T21:07:32.287Z,44.13
2022-11-29T21:10:01.307Z,42.47
2022-11-29T21:12:29.632Z,43.03
2022-11-29T21:14:56.689Z,43.73
2022-11-29T21:17:26.444Z,43.30
2022-11-29T21:19:57.177Z,44.47
2022-11-29T21:22:50.242Z,42.87
2022-11-29T21:25:24.885Z,43.97
2022-11-29T21:27:54.384Z,42.90
2022-11-29T21:30:23.330Z,41.47
2022-11-29T21:32:50.390Z,43.83
2022-11-29T21:35:17.355Z,40.73
2022-11-29T21:37:44.896Z,41.93
2022-11-29T21:40:14.267Z,44.13
2022-11-29T21:42:41.123Z,42.90
2022-11-29T21:45:14.870Z,42.30
2022-11-29T21:47:42.973Z,40.23
2022-11-29T21:50:15.539Z,42.13
2022-11-29T21:52:44.137Z,40.47
2022-11-29T21:55:12.675Z,41.67
2022-11-29T21:57:39.326Z,41.30
2022-11-29T22:00:06.930Z,39.93
2022-11-29T22:02:33.641Z,41.20
2022-11-29T22:05:00.297Z,42.17
2022-11-29T22:07:27.077Z,42.10
2022-11-29T22:09:53.740Z,39.97
2022-11-29T22:12:33.696Z,40.80
2022-11-29T22:15:01.394Z,43.53
2022-11-29T22:17:27.991Z,41.17
2022-11-29T22:19:54.599Z,43.43
2022-11-29T22:22:21.234Z,41.23
2022-11-29T22:24:48.082Z,41.63
2022-11-29T22:27:14.795Z,42.17
2022-11-29T22:29:41.444Z,41.63
2022-11-29T22:32:08.002Z,41.17
2022-11-29T22:34:37.099Z,43.37
2022-11-29T22:37:03.689Z,41.70
2022-11-29T22:39:30.395Z,40.83
2022-11-29T22:41:57.003Z,41.43
2022-11-29T22:44:24.127Z,42.13
2022-11-29T22:46:51.329Z,42.13
2022-11-29T22:49:18.043Z,41.53
2022-11-29T22:51:44.801Z,41.57
2022-11-29T22:54:15.111Z,40.63
2022-11-29T22:56:42.968Z,41.17
2022-11-29T22:59:09.953Z,42.13
2022-11-29T23:01:39.255Z,40.80
2022-11-29T23:04:09.773Z,39.87
2022-11-29T23:06:41.442Z,42.00
2022-11-29T23:09:21.216Z,40.67
2022-11-29T23:11:56.020Z,40.13
2022-11-29T23:14:23.241Z,40.43
2022-11-29T23:16:50.459Z,40.80
2022-11-29T23:19:17.309Z,41.27
2022-11-29T23:21:45.709Z,40.63
2022-11-29T23:24:13.273Z,38.83
2022-11-29T23:26:42.676Z,40.10
2022-11-29T23:29:12.508Z,41.63
2022-11-29T23:31:39.884Z,42.00
2022-11-29T23:34:06.902Z,41.17
2022-11-29T23:36:34.096Z,40.00
2022-11-29T23:39:04.132Z,42.27
2022-11-29T23:41:30.727Z,40.23
2022-11-29T23:43:59.532Z,41.30
2022-11-29T23:46:26.598Z,40.80
2022-11-29T23:48:53.272Z,40.97
2022-11-29T23:51:20.843Z,41.00
2022-11-29T23:53:51.443Z,40.90
2022-11-29T23:56:18.957Z,41.83
2022-11-29T23:58:45.888Z,41.33
